sensor_id;sensor_type;location;lat;lon;timestamp;P1;durP1;ratioP1;P2;durP2;ratioP2
51614;SDS011;37695;52.960;6.188;2023-07-30T00:02:14;12.57;;;4.95;;
51614;SDS011;37695;52.960;6.188;2023-07-30T00:04:40;7.88;;;4.60;;
51614;SDS011;37695;52.960;6.188;2023-07-30T00:07:06;13.25;;;5.43;;
51614;SDS011;37695;52.960;6.188;2023-07-30T00:09:31;13.23;;;5.22;;
51614;SDS011;37695;52.960;6.188;2023-07-30T00:11:57;14.57;;;5.03;;
51614;SDS011;37695;52.960;6.188;2023-07-30T00:14:22;13.63;;;5.38;;
51614;SDS011;37695;52.960;6.188;2023-07-30T00:16:48;11.73;;;5.55;;
51614;SDS011;37695;52.960;6.188;2023-07-30T00:19:14;12.63;;;5.65;;
51614;SDS011;37695;52.960;6.188;2023-07-30T00:21:39;13.85;;;5.65;;
51614;SDS011;37695;52.960;6.188;2023-07-30T00:24:05;10.73;;;5.57;;
51614;SDS011;37695;52.960;6.188;2023-07-30T00:26:30;9.68;;;4.95;;
51614;SDS011;37695;52.960;6.188;2023-07-30T00:28:56;12.80;;;5.90;;
51614;SDS011;37695;52.960;6.188;2023-07-30T00:31:21;14.25;;;5.53;;
51614;SDS011;37695;52.960;6.188;2023-07-30T00:33:47;14.80;;;5.40;;
51614;SDS011;37695;52.960;6.188;2023-07-30T00:36:12;12.57;;;5.07;;
51614;SDS011;37695;52.960;6.188;2023-07-30T00:38:38;14.35;;;5.30;;
51614;SDS011;37695;52.960;6.188;2023-07-30T00:41:03;12.80;;;4.95;;
51614;SDS011;37695;52.960;6.188;2023-07-30T00:43:29;16.15;;;5.30;;
51614;SDS011;37695;52.960;6.188;2023-07-30T00:45:54;13.52;;;5.10;;
51614;SDS011;37695;52.960;6.188;2023-07-30T00:48:20;14.02;;;5.05;;
51614;SDS011;37695;52.960;6.188;2023-07-30T00:50:46;13.48;;;5.47;;
51614;SDS011;37695;52.960;6.188;2023-07-30T00:53:12;14.27;;;6.05;;
51614;SDS011;37695;52.960;6.188;2023-07-30T00:55:39;24.02;;;5.38;;
51614;SDS011;37695;52.960;6.188;2023-07-30T00:58:05;13.98;;;5.65;;
51614;SDS011;37695;52.960;6.188;2023-07-30T01:00:31;15.02;;;5.28;;
51614;SDS011;37695;52.960;6.188;2023-07-30T01:02:57;21.45;;;7.07;;
51614;SDS011;37695;52.960;6.188;2023-07-30T01:05:22;13.43;;;5.50;;
51614;SDS011;37695;52.960;6.188;2023-07-30T01:07:48;21.58;;;5.85;;
51614;SDS011;37695;52.960;6.188;2023-07-30T01:10:14;15.45;;;5.45;;
51614;SDS011;37695;52.960;6.188;2023-07-30T01:12:40;17.10;;;5.90;;
51614;SDS011;37695;52.960;6.188;2023-07-30T01:15:08;15.02;;;6.10;;
51614;SDS011;37695;52.960;6.188;2023-07-30T01:17:35;15.98;;;5.93;;
51614;SDS011;37695;52.960;6.188;2023-07-30T01:20:01;17.23;;;6.43;;
51614;SDS011;37695;52.960;6.188;2023-07-30T01:22:27;17.85;;;5.65;;
51614;SDS011;37695;52.960;6.188;2023-07-30T01:24:53;17.38;;;6.15;;
51614;SDS011;37695;52.960;6.188;2023-07-30T01:27:28;15.55;;;5.70;;
51614;SDS011;37695;52.960;6.188;2023-07-30T01:30:00;18.63;;;6.45;;
51614;SDS011;37695;52.960;6.188;2023-07-30T01:32:35;19.50;;;5.97;;
51614;SDS011;37695;52.960;6.188;2023-07-30T01:35:02;17.70;;;6.10;;
51614;SDS011;37695;52.960;6.188;2023-07-30T01:37:32;16.83;;;5.90;;
51614;SDS011;37695;52.960;6.188;2023-07-30T01:39:58;12.52;;;5.50;;
51614;SDS011;37695;52.960;6.188;2023-07-30T01:42:28;16.98;;;5.13;;
51614;SDS011;37695;52.960;6.188;2023-07-30T01:44:55;20.10;;;6.45;;
51614;SDS011;37695;52.960;6.188;2023-07-30T01:47:20;15.57;;;6.03;;
51614;SDS011;37695;52.960;6.188;2023-07-30T01:49:46;16.20;;;6.30;;
51614;SDS011;37695;52.960;6.188;2023-07-30T01:52:11;17.63;;;6.50;;
51614;SDS011;37695;52.960;6.188;2023-07-30T01:54:37;20.27;;;6.13;;
51614;SDS011;37695;52.960;6.188;2023-07-30T01:57:02;13.60;;;5.60;;
51614;SDS011;37695;52.960;6.188;2023-07-30T01:59:28;14.82;;;5.28;;
51614;SDS011;37695;52.960;6.188;2023-07-30T02:01:54;18.55;;;6.45;;
51614;SDS011;37695;52.960;6.188;2023-07-30T02:04:20;13.18;;;4.80;;
51614;SDS011;37695;52.960;6.188;2023-07-30T02:06:45;16.35;;;5.70;;
51614;SDS011;37695;52.960;6.188;2023-07-30T02:09:11;17.48;;;5.97;;
51614;SDS011;37695;52.960;6.188;2023-07-30T02:11:36;18.88;;;5.30;;
51614;SDS011;37695;52.960;6.188;2023-07-30T02:14:02;14.57;;;5.57;;
51614;SDS011;37695;52.960;6.188;2023-07-30T02:16:27;16.42;;;4.57;;
51614;SDS011;37695;52.960;6.188;2023-07-30T02:18:53;13.32;;;5.47;;
51614;SDS011;37695;52.960;6.188;2023-07-30T02:21:18;14.40;;;5.18;;
51614;SDS011;37695;52.960;6.188;2023-07-30T02:23:44;15.30;;;5.28;;
51614;SDS011;37695;52.960;6.188;2023-07-30T02:26:09;18.88;;;6.13;;
51614;SDS011;37695;52.960;6.188;2023-07-30T02:28:35;18.85;;;6.05;;
51614;SDS011;37695;52.960;6.188;2023-07-30T02:31:00;15.30;;;5.20;;
51614;SDS011;37695;52.960;6.188;2023-07-30T02:33:26;15.70;;;5.68;;
51614;SDS011;37695;52.960;6.188;2023-07-30T02:35:51;17.88;;;5.72;;
51614;SDS011;37695;52.960;6.188;2023-07-30T02:38:17;17.52;;;5.00;;
51614;SDS011;37695;52.960;6.188;2023-07-30T02:40:42;17.10;;;4.80;;
51614;SDS011;37695;52.960;6.188;2023-07-30T02:43:08;22.42;;;5.40;;
51614;SDS011;37695;52.960;6.188;2023-07-30T02:45:33;19.98;;;5.93;;
51614;SDS011;37695;52.960;6.188;2023-07-30T02:47:59;14.48;;;5.13;;
51614;SDS011;37695;52.960;6.188;2023-07-30T02:50:24;14.50;;;4.78;;
51614;SDS011;37695;52.960;6.188;2023-07-30T02:52:50;18.55;;;5.57;;
51614;SDS011;37695;52.960;6.188;2023-07-30T02:55:15;14.07;;;4.75;;
51614;SDS011;37695;52.960;6.188;2023-07-30T02:57:41;19.67;;;5.05;;
51614;SDS011;37695;52.960;6.188;2023-07-30T03:00:07;17.02;;;5.95;;
51614;SDS011;37695;52.960;6.188;2023-07-30T03:02:33;17.98;;;5.28;;
51614;SDS011;37695;52.960;6.188;2023-07-30T03:04:59;18.50;;;5.63;;
51614;SDS011;37695;52.960;6.188;2023-07-30T03:07:25;20.25;;;6.00;;
51614;SDS011;37695;52.960;6.188;2023-07-30T03:09:51;17.23;;;5.65;;
51614;SDS011;37695;52.960;6.188;2023-07-30T03:12:16;14.48;;;4.55;;
51614;SDS011;37695;52.960;6.188;2023-07-30T03:14:42;21.98;;;6.03;;
51614;SDS011;37695;52.960;6.188;2023-07-30T03:17:07;16.38;;;4.90;;
51614;SDS011;37695;52.960;6.188;2023-07-30T03:19:33;19.05;;;5.25;;
51614;SDS011;37695;52.960;6.188;2023-07-30T03:21:58;15.95;;;5.05;;
51614;SDS011;37695;52.960;6.188;2023-07-30T03:24:24;22.50;;;6.38;;
51614;SDS011;37695;52.960;6.188;2023-07-30T03:26:49;20.75;;;6.90;;
51614;SDS011;37695;52.960;6.188;2023-07-30T03:29:15;17.63;;;5.32;;
51614;SDS011;37695;52.960;6.188;2023-07-30T03:31:41;15.57;;;5.35;;
51614;SDS011;37695;52.960;6.188;2023-07-30T03:34:07;20.13;;;5.57;;
51614;SDS011;37695;52.960;6.188;2023-07-30T03:36:33;19.38;;;5.80;;
51614;SDS011;37695;52.960;6.188;2023-07-30T03:38:59;17.50;;;5.47;;
51614;SDS011;37695;52.960;6.188;2023-07-30T03:41:25;14.95;;;5.28;;
51614;SDS011;37695;52.960;6.188;2023-07-30T03:43:50;16.67;;;5.82;;
51614;SDS011;37695;52.960;6.188;2023-07-30T03:46:16;18.67;;;5.18;;
51614;SDS011;37695;52.960;6.188;2023-07-30T03:48:41;17.35;;;5.03;;
51614;SDS011;37695;52.960;6.188;2023-07-30T03:51:07;17.85;;;5.85;;
51614;SDS011;37695;52.960;6.188;2023-07-30T03:53:33;18.65;;;5.35;;
51614;SDS011;37695;52.960;6.188;2023-07-30T03:55:58;16.92;;;5.30;;
51614;SDS011;37695;52.960;6.188;2023-07-30T03:58:24;17.38;;;5.80;;
51614;SDS011;37695;52.960;6.188;2023-07-30T04:00:49;19.40;;;5.57;;
51614;SDS011;37695;52.960;6.188;2023-07-30T04:03:15;18.75;;;6.30;;
51614;SDS011;37695;52.960;6.188;2023-07-30T04:05:40;13.40;;;4.40;;
51614;SDS011;37695;52.960;6.188;2023-07-30T04:08:06;15.55;;;4.95;;
51614;SDS011;37695;52.960;6.188;2023-07-30T04:10:32;16.98;;;5.90;;
51614;SDS011;37695;52.960;6.188;2023-07-30T04:12:57;16.10;;;4.78;;
51614;SDS011;37695;52.960;6.188;2023-07-30T04:15:23;16.85;;;5.20;;
51614;SDS011;37695;52.960;6.188;2023-07-30T04:17:48;18.80;;;5.47;;
51614;SDS011;37695;52.960;6.188;2023-07-30T04:20:14;20.58;;;5.15;;
51614;SDS011;37695;52.960;6.188;2023-07-30T04:22:39;13.50;;;5.68;;
51614;SDS011;37695;52.960;6.188;2023-07-30T04:25:06;15.57;;;4.90;;
51614;SDS011;37695;52.960;6.188;2023-07-30T04:27:33;13.98;;;5.15;;
51614;SDS011;37695;52.960;6.188;2023-07-30T04:29:58;16.40;;;5.43;;
51614;SDS011;37695;52.960;6.188;2023-07-30T04:32:24;18.52;;;5.55;;
51614;SDS011;37695;52.960;6.188;2023-07-30T04:34:49;13.73;;;5.47;;
51614;SDS011;37695;52.960;6.188;2023-07-30T04:37:15;17.27;;;5.00;;
51614;SDS011;37695;52.960;6.188;2023-07-30T04:39:40;15.65;;;5.00;;
51614;SDS011;37695;52.960;6.188;2023-07-30T04:42:06;17.73;;;5.60;;
51614;SDS011;37695;52.960;6.188;2023-07-30T04:44:32;17.10;;;5.45;;
51614;SDS011;37695;52.960;6.188;2023-07-30T04:46:57;18.85;;;5.28;;
51614;SDS011;37695;52.960;6.188;2023-07-30T04:49:23;19.85;;;5.70;;
51614;SDS011;37695;52.960;6.188;2023-07-30T04:51:48;16.70;;;5.35;;
51614;SDS011;37695;52.960;6.188;2023-07-30T04:54:14;17.65;;;5.85;;
51614;SDS011;37695;52.960;6.188;2023-07-30T04:56:39;17.65;;;4.97;;
51614;SDS011;37695;52.960;6.188;2023-07-30T04:59:05;15.40;;;4.70;;
51614;SDS011;37695;52.960;6.188;2023-07-30T05:01:31;22.38;;;5.13;;
51614;SDS011;37695;52.960;6.188;2023-07-30T05:03:58;15.30;;;6.10;;
51614;SDS011;37695;52.960;6.188;2023-07-30T05:06:23;18.65;;;5.47;;
51614;SDS011;37695;52.960;6.188;2023-07-30T05:08:49;20.77;;;6.03;;
51614;SDS011;37695;52.960;6.188;2023-07-30T05:11:15;16.40;;;5.20;;
51614;SDS011;37695;52.960;6.188;2023-07-30T05:13:40;18.50;;;5.00;;
51614;SDS011;37695;52.960;6.188;2023-07-30T05:16:06;18.77;;;4.90;;
51614;SDS011;37695;52.960;6.188;2023-07-30T05:18:31;16.83;;;4.93;;
51614;SDS011;37695;52.960;6.188;2023-07-30T05:20:57;16.90;;;5.10;;
51614;SDS011;37695;52.960;6.188;2023-07-30T05:23:23;18.23;;;5.07;;
51614;SDS011;37695;52.960;6.188;2023-07-30T05:25:48;18.38;;;5.30;;
51614;SDS011;37695;52.960;6.188;2023-07-30T05:28:14;19.95;;;5.90;;
51614;SDS011;37695;52.960;6.188;2023-07-30T05:30:39;13.73;;;5.00;;
51614;SDS011;37695;52.960;6.188;2023-07-30T05:33:05;19.33;;;6.00;;
51614;SDS011;37695;52.960;6.188;2023-07-30T05:35:31;17.20;;;5.20;;
51614;SDS011;37695;52.960;6.188;2023-07-30T05:37:56;17.30;;;4.93;;
51614;SDS011;37695;52.960;6.188;2023-07-30T05:40:22;11.70;;;4.05;;
51614;SDS011;37695;52.960;6.188;2023-07-30T05:42:48;13.68;;;4.60;;
51614;SDS011;37695;52.960;6.188;2023-07-30T05:45:13;17.05;;;5.25;;
51614;SDS011;37695;52.960;6.188;2023-07-30T05:47:39;14.27;;;4.93;;
51614;SDS011;37695;52.960;6.188;2023-07-30T05:50:06;16.25;;;4.88;;
51614;SDS011;37695;52.960;6.188;2023-07-30T05:52:32;20.95;;;5.05;;
51614;SDS011;37695;52.960;6.188;2023-07-30T05:54:57;16.08;;;5.40;;
51614;SDS011;37695;52.960;6.188;2023-07-30T05:57:23;13.15;;;4.28;;
51614;SDS011;37695;52.960;6.188;2023-07-30T05:59:49;16.35;;;5.00;;
51614;SDS011;37695;52.960;6.188;2023-07-30T06:02:14;14.50;;;4.50;;
51614;SDS011;37695;52.960;6.188;2023-07-30T06:04:40;14.02;;;4.47;;
51614;SDS011;37695;52.960;6.188;2023-07-30T06:07:06;11.77;;;4.43;;
51614;SDS011;37695;52.960;6.188;2023-07-30T06:09:31;15.32;;;4.20;;
51614;SDS011;37695;52.960;6.188;2023-07-30T06:11:57;15.93;;;4.93;;
51614;SDS011;37695;52.960;6.188;2023-07-30T06:14:23;14.27;;;4.57;;
51614;SDS011;37695;52.960;6.188;2023-07-30T06:16:49;14.77;;;4.93;;
51614;SDS011;37695;52.960;6.188;2023-07-30T06:19:15;23.02;;;5.72;;
51614;SDS011;37695;52.960;6.188;2023-07-30T06:21:41;14.85;;;4.60;;
51614;SDS011;37695;52.960;6.188;2023-07-30T06:24:07;17.73;;;5.47;;
51614;SDS011;37695;52.960;6.188;2023-07-30T06:26:32;16.23;;;5.55;;
51614;SDS011;37695;52.960;6.188;2023-07-30T06:28:58;15.77;;;4.63;;
51614;SDS011;37695;52.960;6.188;2023-07-30T06:31:24;12.77;;;4.47;;
51614;SDS011;37695;52.960;6.188;2023-07-30T06:33:49;16.58;;;4.88;;
51614;SDS011;37695;52.960;6.188;2023-07-30T06:36:15;16.60;;;4.88;;
51614;SDS011;37695;52.960;6.188;2023-07-30T06:38:40;14.18;;;5.03;;
51614;SDS011;37695;52.960;6.188;2023-07-30T06:41:06;14.65;;;4.78;;
51614;SDS011;37695;52.960;6.188;2023-07-30T06:43:31;15.98;;;5.10;;
51614;SDS011;37695;52.960;6.188;2023-07-30T06:45:57;19.25;;;6.25;;
51614;SDS011;37695;52.960;6.188;2023-07-30T06:48:23;14.82;;;5.53;;
51614;SDS011;37695;52.960;6.188;2023-07-30T06:50:48;17.55;;;5.32;;
51614;SDS011;37695;52.960;6.188;2023-07-30T06:53:14;14.15;;;4.60;;
51614;SDS011;37695;52.960;6.188;2023-07-30T06:55:39;15.18;;;4.80;;
51614;SDS011;37695;52.960;6.188;2023-07-30T06:58:05;15.70;;;4.82;;
51614;SDS011;37695;52.960;6.188;2023-07-30T07:00:30;12.32;;;3.83;;
51614;SDS011;37695;52.960;6.188;2023-07-30T07:02:56;15.32;;;4.60;;
51614;SDS011;37695;52.960;6.188;2023-07-30T07:05:21;13.93;;;4.45;;
51614;SDS011;37695;52.960;6.188;2023-07-30T07:07:47;13.45;;;5.03;;
51614;SDS011;37695;52.960;6.188;2023-07-30T07:10:13;11.30;;;3.90;;
51614;SDS011;37695;52.960;6.188;2023-07-30T07:12:38;13.85;;;3.92;;
51614;SDS011;37695;52.960;6.188;2023-07-30T07:15:04;11.15;;;4.22;;
51614;SDS011;37695;52.960;6.188;2023-07-30T07:17:30;12.20;;;4.43;;
51614;SDS011;37695;52.960;6.188;2023-07-30T07:19:56;11.57;;;3.53;;
51614;SDS011;37695;52.960;6.188;2023-07-30T07:22:22;12.40;;;3.95;;
51614;SDS011;37695;52.960;6.188;2023-07-30T07:24:48;9.90;;;3.65;;
51614;SDS011;37695;52.960;6.188;2023-07-30T07:27:14;8.77;;;3.15;;
51614;SDS011;37695;52.960;6.188;2023-07-30T07:29:40;11.77;;;3.58;;
51614;SDS011;37695;52.960;6.188;2023-07-30T07:32:05;10.70;;;3.42;;
51614;SDS011;37695;52.960;6.188;2023-07-30T07:34:31;13.20;;;3.78;;
51614;SDS011;37695;52.960;6.188;2023-07-30T07:36:57;10.52;;;2.97;;
51614;SDS011;37695;52.960;6.188;2023-07-30T07:39:22;8.82;;;3.05;;
51614;SDS011;37695;52.960;6.188;2023-07-30T07:41:48;8.30;;;2.88;;
51614;SDS011;37695;52.960;6.188;2023-07-30T07:44:13;13.90;;;3.85;;
51614;SDS011;37695;52.960;6.188;2023-07-30T07:46:39;10.48;;;3.38;;
51614;SDS011;37695;52.960;6.188;2023-07-30T07:49:05;10.55;;;3.08;;
51614;SDS011;37695;52.960;6.188;2023-07-30T07:51:33;10.60;;;3.40;;
51614;SDS011;37695;52.960;6.188;2023-07-30T07:53:59;10.98;;;3.60;;
51614;SDS011;37695;52.960;6.188;2023-07-30T07:56:24;8.45;;;2.97;;
51614;SDS011;37695;52.960;6.188;2023-07-30T07:58:50;9.38;;;3.08;;
51614;SDS011;37695;52.960;6.188;2023-07-30T08:01:15;9.10;;;3.00;;
51614;SDS011;37695;52.960;6.188;2023-07-30T08:03:41;8.02;;;2.75;;
51614;SDS011;37695;52.960;6.188;2023-07-30T08:06:06;9.13;;;3.03;;
51614;SDS011;37695;52.960;6.188;2023-07-30T08:08:32;7.85;;;2.90;;
51614;SDS011;37695;52.960;6.188;2023-07-30T08:10:57;9.35;;;3.20;;
51614;SDS011;37695;52.960;6.188;2023-07-30T08:13:23;10.73;;;2.70;;
51614;SDS011;37695;52.960;6.188;2023-07-30T08:15:49;8.25;;;2.78;;
51614;SDS011;37695;52.960;6.188;2023-07-30T08:18:14;9.07;;;2.85;;
51614;SDS011;37695;52.960;6.188;2023-07-30T08:20:40;7.80;;;2.70;;
51614;SDS011;37695;52.960;6.188;2023-07-30T08:23:05;11.02;;;3.33;;
51614;SDS011;37695;52.960;6.188;2023-07-30T08:25:31;6.78;;;2.53;;
51614;SDS011;37695;52.960;6.188;2023-07-30T08:27:57;11.02;;;3.38;;
51614;SDS011;37695;52.960;6.188;2023-07-30T08:30:23;10.32;;;2.60;;
51614;SDS011;37695;52.960;6.188;2023-07-30T08:32:48;7.65;;;2.67;;
51614;SDS011;37695;52.960;6.188;2023-07-30T08:35:14;7.57;;;2.70;;
51614;SDS011;37695;52.960;6.188;2023-07-30T08:37:39;11.10;;;3.20;;
51614;SDS011;37695;52.960;6.188;2023-07-30T08:40:05;9.88;;;3.17;;
51614;SDS011;37695;52.960;6.188;2023-07-30T08:42:31;9.55;;;2.90;;
51614;SDS011;37695;52.960;6.188;2023-07-30T08:44:57;8.20;;;3.13;;
51614;SDS011;37695;52.960;6.188;2023-07-30T08:47:22;9.77;;;3.35;;
51614;SDS011;37695;52.960;6.188;2023-07-30T08:49:48;8.70;;;3.10;;
51614;SDS011;37695;52.960;6.188;2023-07-30T08:52:14;9.82;;;3.22;;
51614;SDS011;37695;52.960;6.188;2023-07-30T08:54:41;7.60;;;2.90;;
51614;SDS011;37695;52.960;6.188;2023-07-30T08:57:09;13.27;;;4.32;;
51614;SDS011;37695;52.960;6.188;2023-07-30T08:59:42;13.18;;;3.72;;
51614;SDS011;37695;52.960;6.188;2023-07-30T09:02:13;8.55;;;3.20;;
51614;SDS011;37695;52.960;6.188;2023-07-30T09:04:56;6.05;;;2.17;;
51614;SDS011;37695;52.960;6.188;2023-07-30T09:07:25;6.18;;;2.58;;
51614;SDS011;37695;52.960;6.188;2023-07-30T09:09:50;5.68;;;2.58;;
51614;SDS011;37695;52.960;6.188;2023-07-30T09:12:16;7.43;;;2.58;;
51614;SDS011;37695;52.960;6.188;2023-07-30T09:14:42;7.00;;;2.30;;
51614;SDS011;37695;52.960;6.188;2023-07-30T09:17:10;6.22;;;2.08;;
51614;SDS011;37695;52.960;6.188;2023-07-30T09:19:41;6.85;;;2.30;;
51614;SDS011;37695;52.960;6.188;2023-07-30T09:22:07;4.82;;;2.10;;
51614;SDS011;37695;52.960;6.188;2023-07-30T09:24:33;6.82;;;2.22;;
51614;SDS011;37695;52.960;6.188;2023-07-30T09:27:01;5.22;;;2.28;;
51614;SDS011;37695;52.960;6.188;2023-07-30T09:29:27;6.63;;;2.38;;
51614;SDS011;37695;52.960;6.188;2023-07-30T09:31:53;6.57;;;2.35;;
51614;SDS011;37695;52.960;6.188;2023-07-30T09:34:20;7.28;;;2.50;;
51614;SDS011;37695;52.960;6.188;2023-07-30T09:36:48;7.30;;;2.17;;
51614;SDS011;37695;52.960;6.188;2023-07-30T09:39:16;4.68;;;1.92;;
51614;SDS011;37695;52.960;6.188;2023-07-30T09:41:42;6.88;;;2.35;;
51614;SDS011;37695;52.960;6.188;2023-07-30T09:44:08;5.18;;;2.35;;
51614;SDS011;37695;52.960;6.188;2023-07-30T09:46:34;6.18;;;2.38;;
51614;SDS011;37695;52.960;6.188;2023-07-30T09:49:11;7.88;;;2.63;;
51614;SDS011;37695;52.960;6.188;2023-07-30T09:51:37;7.03;;;2.67;;
51614;SDS011;37695;52.960;6.188;2023-07-30T09:54:05;7.57;;;2.72;;
51614;SDS011;37695;52.960;6.188;2023-07-30T09:56:32;6.47;;;2.72;;
51614;SDS011;37695;52.960;6.188;2023-07-30T09:58:58;10.63;;;2.75;;
51614;SDS011;37695;52.960;6.188;2023-07-30T10:01:24;8.52;;;2.65;;
51614;SDS011;37695;52.960;6.188;2023-07-30T10:03:54;9.15;;;3.10;;
51614;SDS011;37695;52.960;6.188;2023-07-30T10:06:21;7.88;;;2.45;;
51614;SDS011;37695;52.960;6.188;2023-07-30T10:08:50;8.35;;;3.15;;
51614;SDS011;37695;52.960;6.188;2023-07-30T10:11:17;10.50;;;2.85;;
51614;SDS011;37695;52.960;6.188;2023-07-30T10:13:45;9.60;;;3.20;;
51614;SDS011;37695;52.960;6.188;2023-07-30T10:16:11;7.18;;;3.13;;
51614;SDS011;37695;52.960;6.188;2023-07-30T10:18:40;6.72;;;2.78;;
51614;SDS011;37695;52.960;6.188;2023-07-30T10:21:08;9.27;;;3.17;;
51614;SDS011;37695;52.960;6.188;2023-07-30T10:23:35;10.10;;;3.50;;
51614;SDS011;37695;52.960;6.188;2023-07-30T10:26:08;9.27;;;3.78;;
51614;SDS011;37695;52.960;6.188;2023-07-30T10:28:35;9.02;;;3.08;;
51614;SDS011;37695;52.960;6.188;2023-07-30T10:31:07;7.88;;;3.10;;
51614;SDS011;37695;52.960;6.188;2023-07-30T10:33:46;9.32;;;3.58;;
51614;SDS011;37695;52.960;6.188;2023-07-30T10:36:18;11.48;;;3.17;;
51614;SDS011;37695;52.960;6.188;2023-07-30T10:39:10;7.90;;;2.70;;
51614;SDS011;37695;52.960;6.188;2023-07-30T10:41:37;9.75;;;2.75;;
51614;SDS011;37695;52.960;6.188;2023-07-30T10:44:03;7.47;;;2.88;;
51614;SDS011;37695;52.960;6.188;2023-07-30T10:46:29;7.97;;;2.65;;
51614;SDS011;37695;52.960;6.188;2023-07-30T10:48:55;7.30;;;2.75;;
51614;SDS011;37695;52.960;6.188;2023-07-30T10:51:20;8.10;;;3.00;;
51614;SDS011;37695;52.960;6.188;2023-07-30T10:53:48;11.57;;;3.00;;
51614;SDS011;37695;52.960;6.188;2023-07-30T10:56:16;9.07;;;3.10;;
51614;SDS011;37695;52.960;6.188;2023-07-30T10:58:43;9.48;;;2.78;;
51614;SDS011;37695;52.960;6.188;2023-07-30T11:01:13;9.75;;;2.85;;
51614;SDS011;37695;52.960;6.188;2023-07-30T11:03:39;9.10;;;2.85;;
51614;SDS011;37695;52.960;6.188;2023-07-30T11:06:04;6.47;;;2.80;;
51614;SDS011;37695;52.960;6.188;2023-07-30T11:08:34;6.50;;;2.25;;
51614;SDS011;37695;52.960;6.188;2023-07-30T11:11:01;8.82;;;2.80;;
51614;SDS011;37695;52.960;6.188;2023-07-30T11:13:27;7.25;;;2.60;;
51614;SDS011;37695;52.960;6.188;2023-07-30T11:15:53;5.80;;;2.30;;
51614;SDS011;37695;52.960;6.188;2023-07-30T11:18:19;7.22;;;2.75;;
51614;SDS011;37695;52.960;6.188;2023-07-30T11:20:44;8.40;;;2.67;;
51614;SDS011;37695;52.960;6.188;2023-07-30T11:23:17;6.45;;;2.40;;
51614;SDS011;37695;52.960;6.188;2023-07-30T11:25:47;8.60;;;3.03;;
51614;SDS011;37695;52.960;6.188;2023-07-30T11:33:41;9.57;;;3.40;;
51614;SDS011;37695;52.960;6.188;2023-07-30T11:36:09;10.48;;;2.80;;
51614;SDS011;37695;52.960;6.188;2023-07-30T11:38:43;8.77;;;3.22;;
51614;SDS011;37695;52.960;6.188;2023-07-30T11:41:10;9.45;;;2.72;;
51614;SDS011;37695;52.960;6.188;2023-07-30T11:43:40;9.95;;;3.15;;
51614;SDS011;37695;52.960;6.188;2023-07-30T11:46:07;9.43;;;2.63;;
51614;SDS011;37695;52.960;6.188;2023-07-30T11:48:44;9.05;;;2.85;;
51614;SDS011;37695;52.960;6.188;2023-07-30T11:51:27;7.25;;;2.78;;
51614;SDS011;37695;52.960;6.188;2023-07-30T11:53:58;10.15;;;3.10;;
51614;SDS011;37695;52.960;6.188;2023-07-30T11:56:27;8.10;;;3.00;;
51614;SDS011;37695;52.960;6.188;2023-07-30T11:58:57;10.65;;;3.28;;
51614;SDS011;37695;52.960;6.188;2023-07-30T12:01:28;16.75;;;3.05;;
51614;SDS011;37695;52.960;6.188;2023-07-30T12:03:58;10.88;;;2.90;;
51614;SDS011;37695;52.960;6.188;2023-07-30T12:06:37;8.30;;;3.25;;
51614;SDS011;37695;52.960;6.188;2023-07-30T12:09:13;7.57;;;3.13;;
51614;SDS011;37695;52.960;6.188;2023-07-30T12:11:44;7.60;;;2.65;;
51614;SDS011;37695;52.960;6.188;2023-07-30T12:14:26;8.07;;;2.80;;
51614;SDS011;37695;52.960;6.188;2023-07-30T12:16:58;6.72;;;2.67;;
51614;SDS011;37695;52.960;6.188;2023-07-30T12:19:26;9.25;;;3.20;;
51614;SDS011;37695;52.960;6.188;2023-07-30T12:21:52;10.00;;;3.10;;
51614;SDS011;37695;52.960;6.188;2023-07-30T12:24:17;11.98;;;3.67;;
51614;SDS011;37695;52.960;6.188;2023-07-30T12:26:43;6.35;;;2.72;;
51614;SDS011;37695;52.960;6.188;2023-07-30T12:29:09;10.98;;;3.33;;
51614;SDS011;37695;52.960;6.188;2023-07-30T12:31:34;10.45;;;3.17;;
51614;SDS011;37695;52.960;6.188;2023-07-30T12:34:01;7.93;;;2.70;;
51614;SDS011;37695;52.960;6.188;2023-07-30T12:36:27;7.68;;;3.10;;
51614;SDS011;37695;52.960;6.188;2023-07-30T12:38:53;11.23;;;3.08;;
51614;SDS011;37695;52.960;6.188;2023-07-30T12:41:19;10.88;;;2.92;;
51614;SDS011;37695;52.960;6.188;2023-07-30T12:43:51;8.65;;;2.97;;
51614;SDS011;37695;52.960;6.188;2023-07-30T12:46:17;5.28;;;2.22;;
51614;SDS011;37695;52.960;6.188;2023-07-30T12:48:44;12.27;;;2.75;;
51614;SDS011;37695;52.960;6.188;2023-07-30T12:51:09;6.47;;;2.30;;
51614;SDS011;37695;52.960;6.188;2023-07-30T12:53:35;8.05;;;2.60;;
51614;SDS011;37695;52.960;6.188;2023-07-30T12:56:00;6.95;;;2.45;;
51614;SDS011;37695;52.960;6.188;2023-07-30T12:58:26;11.35;;;2.53;;
51614;SDS011;37695;52.960;6.188;2023-07-30T13:00:51;10.57;;;2.45;;
51614;SDS011;37695;52.960;6.188;2023-07-30T13:03:17;9.70;;;2.92;;
51614;SDS011;37695;52.960;6.188;2023-07-30T13:05:42;8.05;;;2.67;;
51614;SDS011;37695;52.960;6.188;2023-07-30T13:08:08;8.35;;;2.40;;
51614;SDS011;37695;52.960;6.188;2023-07-30T13:10:33;7.25;;;2.65;;
51614;SDS011;37695;52.960;6.188;2023-07-30T13:13:00;7.57;;;2.92;;
51614;SDS011;37695;52.960;6.188;2023-07-30T13:15:25;6.40;;;2.10;;
51614;SDS011;37695;52.960;6.188;2023-07-30T13:17:52;5.70;;;2.22;;
51614;SDS011;37695;52.960;6.188;2023-07-30T13:20:18;6.20;;;2.20;;
51614;SDS011;37695;52.960;6.188;2023-07-30T13:22:43;12.40;;;2.92;;
51614;SDS011;37695;52.960;6.188;2023-07-30T13:25:09;7.72;;;2.85;;
51614;SDS011;37695;52.960;6.188;2023-07-30T13:27:34;7.85;;;2.80;;
51614;SDS011;37695;52.960;6.188;2023-07-30T13:30:00;6.93;;;2.78;;
51614;SDS011;37695;52.960;6.188;2023-07-30T13:32:26;7.93;;;2.67;;
51614;SDS011;37695;52.960;6.188;2023-07-30T13:34:51;10.23;;;3.33;;
51614;SDS011;37695;52.960;6.188;2023-07-30T13:37:17;10.20;;;2.85;;
51614;SDS011;37695;52.960;6.188;2023-07-30T13:39:42;8.80;;;2.85;;
51614;SDS011;37695;52.960;6.188;2023-07-30T13:42:08;9.15;;;3.00;;
51614;SDS011;37695;52.960;6.188;2023-07-30T13:44:33;12.27;;;2.85;;
51614;SDS011;37695;52.960;6.188;2023-07-30T13:46:59;10.13;;;2.75;;
51614;SDS011;37695;52.960;6.188;2023-07-30T13:49:24;8.90;;;2.50;;
51614;SDS011;37695;52.960;6.188;2023-07-30T13:51:50;9.45;;;2.70;;
51614;SDS011;37695;52.960;6.188;2023-07-30T13:54:16;5.53;;;2.22;;
51614;SDS011;37695;52.960;6.188;2023-07-30T13:56:41;8.68;;;2.38;;
51614;SDS011;37695;52.960;6.188;2023-07-30T13:59:07;10.32;;;2.63;;
51614;SDS011;37695;52.960;6.188;2023-07-30T14:01:32;9.23;;;2.63;;
51614;SDS011;37695;52.960;6.188;2023-07-30T14:03:58;8.10;;;2.90;;
51614;SDS011;37695;52.960;6.188;2023-07-30T14:06:23;7.43;;;2.58;;
51614;SDS011;37695;52.960;6.188;2023-07-30T14:08:49;7.72;;;2.72;;
51614;SDS011;37695;52.960;6.188;2023-07-30T14:11:14;9.48;;;2.88;;
51614;SDS011;37695;52.960;6.188;2023-07-30T14:13:40;7.28;;;2.20;;
51614;SDS011;37695;52.960;6.188;2023-07-30T14:16:05;5.80;;;2.13;;
51614;SDS011;37695;52.960;6.188;2023-07-30T14:18:31;10.23;;;2.00;;
51614;SDS011;37695;52.960;6.188;2023-07-30T14:20:57;6.85;;;2.50;;
51614;SDS011;37695;52.960;6.188;2023-07-30T14:23:23;6.10;;;2.30;;
51614;SDS011;37695;52.960;6.188;2023-07-30T14:25:49;4.40;;;1.85;;
51614;SDS011;37695;52.960;6.188;2023-07-30T14:28:14;8.63;;;2.13;;
51614;SDS011;37695;52.960;6.188;2023-07-30T14:30:40;5.35;;;2.08;;
51614;SDS011;37695;52.960;6.188;2023-07-30T14:33:09;6.57;;;2.10;;
51614;SDS011;37695;52.960;6.188;2023-07-30T14:35:35;8.77;;;2.30;;
51614;SDS011;37695;52.960;6.188;2023-07-30T14:38:03;6.43;;;2.50;;
51614;SDS011;37695;52.960;6.188;2023-07-30T14:40:29;8.85;;;2.50;;
51614;SDS011;37695;52.960;6.188;2023-07-30T14:42:55;8.10;;;2.92;;